sensor_id;sensor_type;location;lat;lon;timestamp;pressure;altitude;pressure_sealevel;temperature;humidity
55171;BME280;41060;47.510;8.680;2023-06-04T00:00:07;96854.16;;;25.79;31.41
55171;BME280;41060;47.510;8.680;2023-06-04T00:02:36;96856.75;;;25.67;31.47
55171;BME280;41060;47.510;8.680;2023-06-04T00:05:06;96857.41;;;25.63;31.81
55171;BME280;41060;47.510;8.680;2023-06-04T00:07:32;96853.66;;;25.64;31.69
55171;BME280;41060;47.510;8.680;2023-06-04T00:10:00;96848.63;;;25.18;32.08
55171;BME280;41060;47.510;8.680;2023-06-04T00:12:26;96856.75;;;25.18;32.47
55171;BME280;41060;47.510;8.680;2023-06-04T00:14:53;96861.97;;;25.19;32.52
55171;BME280;41060;47.510;8.680;2023-06-04T00:17:20;96810.22;;;24.96;31.95
55171;BME280;41060;47.510;8.680;2023-06-04T00:19:47;96853.31;;;25.29;32.03
55171;BME280;41060;47.510;8.680;2023-06-04T00:22:15;96860.53;;;25.42;31.74
55171;BME280;41060;47.510;8.680;2023-06-04T00:24:42;96852.97;;;25.44;31.86
55171;BME280;41060;47.510;8.680;2023-06-04T00:27:09;96851.28;;;25.49;31.46
55171;BME280;41060;47.510;8.680;2023-06-04T00:29:36;96860.00;;;25.51;31.88
55171;BME280;41060;47.510;8.680;2023-06-04T00:32:09;96865.09;;;25.41;31.98
55171;BME280;41060;47.510;8.680;2023-06-04T00:34:38;96855.81;;;25.30;32.04
55171;BME280;41060;47.510;8.680;2023-06-04T00:37:11;96851.94;;;25.20;32.36
55171;BME280;41060;47.510;8.680;2023-06-04T00:39:38;96858.63;;;25.17;32.65
55171;BME280;41060;47.510;8.680;2023-06-04T00:42:05;96860.34;;;25.12;32.86
55171;BME280;41060;47.510;8.680;2023-06-04T00:44:35;96839.78;;;24.98;32.65
55171;BME280;41060;47.510;8.680;2023-06-04T00:47:05;96854.47;;;25.15;32.21
55171;BME280;41060;47.510;8.680;2023-06-04T00:49:31;96859.06;;;25.14;32.33
55171;BME280;41060;47.510;8.680;2023-06-04T00:51:59;96854.25;;;25.16;32.23
55171;BME280;41060;47.510;8.680;2023-06-04T00:54:25;96857.97;;;25.22;31.96
55171;BME280;41060;47.510;8.680;2023-06-04T00:56:53;96858.50;;;25.30;31.83
55171;BME280;41060;47.510;8.680;2023-06-04T00:59:21;96857.25;;;25.33;31.96
55171;BME280;41060;47.510;8.680;2023-06-04T01:01:51;96859.88;;;25.21;31.90
55171;BME280;41060;47.510;8.680;2023-06-04T01:04:26;96865.94;;;25.17;32.24
55171;BME280;41060;47.510;8.680;2023-06-04T01:06:56;96847.63;;;25.12;32.20
55171;BME280;41060;47.510;8.680;2023-06-04T01:09:26;96859.06;;;25.14;32.08
55171;BME280;41060;47.510;8.680;2023-06-04T01:11:54;96858.41;;;25.19;32.33
55171;BME280;41060;47.510;8.680;2023-06-04T01:14:24;96861.13;;;25.19;32.20
55171;BME280;41060;47.510;8.680;2023-06-04T01:16:56;96845.50;;;25.14;32.38
55171;BME280;41060;47.510;8.680;2023-06-04T01:22:31;96858.50;;;25.30;32.22
55171;BME280;41060;47.510;8.680;2023-06-04T01:25:03;96871.56;;;25.40;31.82
55171;BME280;41060;47.510;8.680;2023-06-04T01:27:31;96860.06;;;25.45;32.07
55171;BME280;41060;47.510;8.680;2023-06-04T01:30:01;96866.31;;;25.45;31.76
55171;BME280;41060;47.510;8.680;2023-06-04T01:32:30;96872.63;;;25.39;32.11
55171;BME280;41060;47.510;8.680;2023-06-04T01:34:57;96867.81;;;25.41;32.08
55171;BME280;41060;47.510;8.680;2023-06-04T01:37:24;96873.84;;;25.43;31.88
55171;BME280;41060;47.510;8.680;2023-06-04T01:39:51;96866.78;;;25.42;31.49
55171;BME280;41060;47.510;8.680;2023-06-04T01:42:18;96872.41;;;25.41;31.68
55171;BME280;41060;47.510;8.680;2023-06-04T01:44:46;96852.88;;;25.32;31.75
55171;BME280;41060;47.510;8.680;2023-06-04T01:47:13;96873.84;;;25.43;31.71
55171;BME280;41060;47.510;8.680;2023-06-04T01:49:39;96872.19;;;25.42;31.65
55171;BME280;41060;47.510;8.680;2023-06-04T01:52:07;96872.84;;;25.38;31.78
55171;BME280;41060;47.510;8.680;2023-06-04T01:54:33;96882.25;;;25.35;32.06
55171;BME280;41060;47.510;8.680;2023-06-04T01:57:00;96877.22;;;25.39;31.81
55171;BME280;41060;47.510;8.680;2023-06-04T01:59:29;96879.75;;;25.34;32.40
55171;BME280;41060;47.510;8.680;2023-06-04T02:01:58;96881.69;;;25.26;32.39
55171;BME280;41060;47.510;8.680;2023-06-04T02:04:27;96887.75;;;25.28;32.48
55171;BME280;41060;47.510;8.680;2023-06-04T02:06:54;96884.34;;;25.33;32.32
55171;BME280;41060;47.510;8.680;2023-06-04T02:09:21;96888.53;;;25.29;32.43
55171;BME280;41060;47.510;8.680;2023-06-04T02:11:47;96890.41;;;25.35;32.32
55171;BME280;41060;47.510;8.680;2023-06-04T02:14:14;96890.81;;;25.32;32.23
55171;BME280;41060;47.510;8.680;2023-06-04T02:16:41;96878.84;;;25.21;31.94
55171;BME280;41060;47.510;8.680;2023-06-04T02:19:09;96899.63;;;25.27;32.32
55171;BME280;41060;47.510;8.680;2023-06-04T02:21:38;96897.78;;;25.21;32.08
55171;BME280;41060;47.510;8.680;2023-06-04T02:24:05;96890.94;;;25.19;32.26
55171;BME280;41060;47.510;8.680;2023-06-04T02:26:32;96898.34;;;24.99;32.55
55171;BME280;41060;47.510;8.680;2023-06-04T02:28:59;96901.09;;;24.41;34.44
55171;BME280;41060;47.510;8.680;2023-06-04T02:31:25;96895.69;;;24.41;34.29
55171;BME280;41060;47.510;8.680;2023-06-04T02:33:52;96900.91;;;24.36;34.87
55171;BME280;41060;47.510;8.680;2023-06-04T02:36:20;96890.69;;;24.38;34.37
55171;BME280;41060;47.510;8.680;2023-06-04T02:38:47;96892.53;;;24.50;33.94
55171;BME280;41060;47.510;8.680;2023-06-04T02:41:13;96896.00;;;24.64;33.90
55171;BME280;41060;47.510;8.680;2023-06-04T02:43:40;96890.22;;;24.61;33.54
55171;BME280;41060;47.510;8.680;2023-06-04T02:46:07;96901.00;;;24.67;33.88
55171;BME280;41060;47.510;8.680;2023-06-04T02:48:36;96857.41;;;24.44;34.13
55171;BME280;41060;47.510;8.680;2023-06-04T02:51:04;96895.03;;;24.52;34.11
55171;BME280;41060;47.510;8.680;2023-06-04T02:53:32;96892.97;;;24.54;33.93
55171;BME280;41060;47.510;8.680;2023-06-04T02:55:59;96883.97;;;24.60;33.16
55171;BME280;41060;47.510;8.680;2023-06-04T02:58:26;96899.91;;;24.75;33.10
55171;BME280;41060;47.510;8.680;2023-06-04T03:00:55;96878.50;;;24.67;33.59
55171;BME280;41060;47.510;8.680;2023-06-04T03:03:21;96897.56;;;24.40;33.57
55171;BME280;41060;47.510;8.680;2023-06-04T03:05:48;96901.09;;;24.41;33.43
55171;BME280;41060;47.510;8.680;2023-06-04T03:08:15;96896.31;;;24.43;33.78
55171;BME280;41060;47.510;8.680;2023-06-04T03:10:43;96908.78;;;24.50;33.40
55171;BME280;41060;47.510;8.680;2023-06-04T03:13:10;96904.38;;;24.56;33.65
55171;BME280;41060;47.510;8.680;2023-06-04T03:15:39;96901.47;;;24.58;33.57
55171;BME280;41060;47.510;8.680;2023-06-04T03:18:05;96903.97;;;24.59;33.33
55171;BME280;41060;47.510;8.680;2023-06-04T03:20:32;96907.88;;;24.63;32.88
55171;BME280;41060;47.510;8.680;2023-06-04T03:23:03;96898.38;;;24.54;33.24
55171;BME280;41060;47.510;8.680;2023-06-04T03:25:30;96915.16;;;24.69;32.89
55171;BME280;41060;47.510;8.680;2023-06-04T03:27:58;96917.88;;;24.69;32.57
55171;BME280;41060;47.510;8.680;2023-06-04T03:30:25;96929.75;;;24.68;32.77
55171;BME280;41060;47.510;8.680;2023-06-04T03:32:54;96931.63;;;24.68;32.87
55171;BME280;41060;47.510;8.680;2023-06-04T03:35:21;96921.16;;;24.71;32.43
55171;BME280;41060;47.510;8.680;2023-06-04T03:37:47;96925.13;;;24.75;32.50
55171;BME280;41060;47.510;8.680;2023-06-04T03:40:14;96931.78;;;24.73;32.09
55171;BME280;41060;47.510;8.680;2023-06-04T03:42:41;96936.81;;;24.63;32.18
55171;BME280;41060;47.510;8.680;2023-06-04T03:45:15;96937.91;;;24.62;32.45
55171;BME280;41060;47.510;8.680;2023-06-04T03:47:42;96927.28;;;24.60;32.84
55171;BME280;41060;47.510;8.680;2023-06-04T03:50:09;96945.75;;;24.70;32.79
55171;BME280;41060;47.510;8.680;2023-06-04T03:52:36;96923.28;;;24.63;32.61
55171;BME280;41060;47.510;8.680;2023-06-04T03:55:04;96940.13;;;24.71;32.46
55171;BME280;41060;47.510;8.680;2023-06-04T03:57:33;96946.38;;;24.72;32.79
55171;BME280;41060;47.510;8.680;2023-06-04T04:00:00;96945.53;;;24.71;32.66
55171;BME280;41060;47.510;8.680;2023-06-04T04:02:29;96944.06;;;24.75;32.59
55171;BME280;41060;47.510;8.680;2023-06-04T04:04:55;96941.38;;;24.75;32.33
55171;BME280;41060;47.510;8.680;2023-06-04T04:07:22;96949.28;;;24.77;32.44
55171;BME280;41060;47.510;8.680;2023-06-04T04:09:51;96945.53;;;24.71;32.39
55171;BME280;41060;47.510;8.680;2023-06-04T04:12:18;96932.03;;;24.65;31.99
55171;BME280;41060;47.510;8.680;2023-06-04T04:14:44;96939.13;;;24.66;32.31
55171;BME280;41060;47.510;8.680;2023-06-04T04:17:13;96950.59;;;24.61;32.22
55171;BME280;41060;47.510;8.680;2023-06-04T04:19:41;96947.06;;;24.61;32.18
55171;BME280;41060;47.510;8.680;2023-06-04T04:22:07;96954.72;;;24.64;32.29
55171;BME280;41060;47.510;8.680;2023-06-04T04:24:35;96938.28;;;24.65;32.04
55171;BME280;41060;47.510;8.680;2023-06-04T04:27:03;96952.22;;;24.69;32.14
55171;BME280;41060;47.510;8.680;2023-06-04T04:29:30;96959.72;;;24.67;31.74
55171;BME280;41060;47.510;8.680;2023-06-04T04:31:58;96957.50;;;24.50;32.43
55171;BME280;41060;47.510;8.680;2023-06-04T04:34:26;96930.75;;;24.09;32.97
55171;BME280;41060;47.510;8.680;2023-06-04T04:36:54;96967.94;;;24.21;33.16
55171;BME280;41060;47.510;8.680;2023-06-04T04:39:23;96974.00;;;24.23;33.14
55171;BME280;41060;47.510;8.680;2023-06-04T04:41:50;96973.13;;;24.29;33.14
55171;BME280;41060;47.510;8.680;2023-06-04T04:44:17;96948.66;;;23.91;33.68
55171;BME280;41060;47.510;8.680;2023-06-04T04:46:44;96979.84;;;24.00;33.63
55171;BME280;41060;47.510;8.680;2023-06-04T04:49:12;96956.13;;;23.89;33.64
55171;BME280;41060;47.510;8.680;2023-06-04T04:51:39;96980.28;;;23.84;33.96
55171;BME280;41060;47.510;8.680;2023-06-04T04:54:07;96984.59;;;23.45;34.74
55171;BME280;41060;47.510;8.680;2023-06-04T04:56:34;96982.31;;;23.55;33.97
55171;BME280;41060;47.510;8.680;2023-06-04T04:59:01;96980.84;;;23.53;33.99
55171;BME280;41060;47.510;8.680;2023-06-04T05:01:28;96983.19;;;23.75;33.84
55171;BME280;41060;47.510;8.680;2023-06-04T05:03:55;96974.22;;;23.82;33.63
55171;BME280;41060;47.510;8.680;2023-06-04T05:06:21;96985.03;;;24.08;33.01
55171;BME280;41060;47.510;8.680;2023-06-04T05:08:48;96995.41;;;24.11;32.33
55171;BME280;41060;47.510;8.680;2023-06-04T05:11:16;96943.03;;;23.46;32.73
55171;BME280;41060;47.510;8.680;2023-06-04T05:13:43;96991.53;;;23.81;33.58
55171;BME280;41060;47.510;8.680;2023-06-04T05:16:10;96994.22;;;23.94;33.32
55171;BME280;41060;47.510;8.680;2023-06-04T05:18:40;96954.69;;;23.86;33.09
55171;BME280;41060;47.510;8.680;2023-06-04T05:21:07;96996.03;;;24.20;32.86
55171;BME280;41060;47.510;8.680;2023-06-04T05:23:34;97000.63;;;24.12;32.64
55171;BME280;41060;47.510;8.680;2023-06-04T05:26:02;96998.97;;;23.65;33.84
55171;BME280;41060;47.510;8.680;2023-06-04T05:28:31;97002.22;;;23.21;34.39
55171;BME280;41060;47.510;8.680;2023-06-04T05:31:00;97003.91;;;23.35;34.51
55171;BME280;41060;47.510;8.680;2023-06-04T05:33:26;97002.81;;;23.17;34.54
55171;BME280;41060;47.510;8.680;2023-06-04T05:35:55;97008.44;;;22.68;35.16
55171;BME280;41060;47.510;8.680;2023-06-04T05:38:23;97009.75;;;22.85;35.16
55171;BME280;41060;47.510;8.680;2023-06-04T05:40:53;96968.31;;;22.51;35.48
55171;BME280;41060;47.510;8.680;2023-06-04T05:43:20;97013.78;;;22.54;35.64
55171;BME280;41060;47.510;8.680;2023-06-04T05:45:48;97011.88;;;22.55;36.09
55171;BME280;41060;47.510;8.680;2023-06-04T05:48:16;97008.56;;;22.53;35.64
55171;BME280;41060;47.510;8.680;2023-06-04T05:50:43;97008.78;;;22.51;35.64
55171;BME280;41060;47.510;8.680;2023-06-04T05:53:10;96998.88;;;22.65;35.03
55171;BME280;41060;47.510;8.680;2023-06-04T05:55:40;97004.63;;;22.96;34.74
55171;BME280;41060;47.510;8.680;2023-06-04T05:58:10;97012.59;;;23.24;34.26
55171;BME280;41060;47.510;8.680;2023-06-04T06:00:37;97005.56;;;23.36;34.08
55171;BME280;41060;47.510;8.680;2023-06-04T06:03:05;97014.09;;;23.33;34.28
55171;BME280;41060;47.510;8.680;2023-06-04T06:05:35;97006.19;;;23.38;34.35
55171;BME280;41060;47.510;8.680;2023-06-04T06:08:02;97019.31;;;23.55;34.16
55171;BME280;41060;47.510;8.680;2023-06-04T06:10:32;97003.69;;;23.37;34.19
55171;BME280;41060;47.510;8.680;2023-06-04T06:12:59;97026.13;;;23.37;34.33
55171;BME280;41060;47.510;8.680;2023-06-04T06:15:27;97017.75;;;23.06;34.87
55171;BME280;41060;47.510;8.680;2023-06-04T06:17:54;96957.69;;;22.50;34.95
55171;BME280;41060;47.510;8.680;2023-06-04T06:20:23;97033.72;;;22.60;35.48
55171;BME280;41060;47.510;8.680;2023-06-04T06:22:50;97014.41;;;22.29;36.37
55171;BME280;41060;47.510;8.680;2023-06-04T06:25:17;97039.25;;;22.17;36.87
55171;BME280;41060;47.510;8.680;2023-06-04T06:27:44;97028.34;;;22.32;36.48
55171;BME280;41060;47.510;8.680;2023-06-04T06:30:15;96863.34;;;21.81;35.57
55171;BME280;41060;47.510;8.680;2023-06-04T06:32:42;97034.03;;;23.26;34.76
55171;BME280;41060;47.510;8.680;2023-06-04T06:35:09;97043.84;;;23.60;34.40
55171;BME280;41060;47.510;8.680;2023-06-04T06:37:37;97045.16;;;23.90;33.90
55171;BME280;41060;47.510;8.680;2023-06-04T06:40:08;97041.22;;;23.80;33.83
55171;BME280;41060;47.510;8.680;2023-06-04T06:42:34;97046.81;;;23.85;34.02
55171;BME280;41060;47.510;8.680;2023-06-04T06:45:02;97042.06;;;23.80;33.44
55171;BME280;41060;47.510;8.680;2023-06-04T06:47:28;97038.38;;;23.20;34.90
55171;BME280;41060;47.510;8.680;2023-06-04T06:49:55;97042.47;;;23.10;35.52
55171;BME280;41060;47.510;8.680;2023-06-04T06:52:22;97035.84;;;23.12;35.17
55171;BME280;41060;47.510;8.680;2023-06-04T06:54:52;97039.09;;;23.01;35.55
55171;BME280;41060;47.510;8.680;2023-06-04T06:57:19;97040.50;;;22.84;35.77
55171;BME280;41060;47.510;8.680;2023-06-04T06:59:46;97037.78;;;22.84;36.32
55171;BME280;41060;47.510;8.680;2023-06-04T07:02:12;97040.06;;;22.80;36.58
55171;BME280;41060;47.510;8.680;2023-06-04T07:04:39;97041.50;;;22.76;36.54
55171;BME280;41060;47.510;8.680;2023-06-04T07:07:06;97040.84;;;22.74;36.79
55171;BME280;41060;47.510;8.680;2023-06-04T07:09:32;97036.47;;;22.39;37.58
55171;BME280;41060;47.510;8.680;2023-06-04T07:12:03;97036.28;;;22.40;37.52
55171;BME280;41060;47.510;8.680;2023-06-04T07:14:32;97039.19;;;22.39;37.44
55171;BME280;41060;47.510;8.680;2023-06-04T07:16:59;97037.84;;;22.56;37.37
55171;BME280;41060;47.510;8.680;2023-06-04T07:19:27;97037.66;;;22.98;36.34
55171;BME280;41060;47.510;8.680;2023-06-04T07:21:57;97032.31;;;23.12;36.33
55171;BME280;41060;47.510;8.680;2023-06-04T07:24:24;97033.00;;;23.27;36.33
55171;BME280;41060;47.510;8.680;2023-06-04T07:26:52;97038.81;;;23.30;35.92
55171;BME280;41060;47.510;8.680;2023-06-04T07:29:21;97035.28;;;23.36;36.12
55171;BME280;41060;47.510;8.680;2023-06-04T07:31:47;97049.03;;;23.48;35.94
55171;BME280;41060;47.510;8.680;2023-06-04T07:34:15;97042.09;;;23.19;36.12
55171;BME280;41060;47.510;8.680;2023-06-04T07:36:42;97045.69;;;23.33;36.02
55171;BME280;41060;47.510;8.680;2023-06-04T07:39:09;97048.59;;;23.51;35.38
55171;BME280;41060;47.510;8.680;2023-06-04T07:41:35;97053.63;;;23.67;34.95
55171;BME280;41060;47.510;8.680;2023-06-04T07:44:03;97050.06;;;23.47;35.44
55171;BME280;41060;47.510;8.680;2023-06-04T07:46:30;97046.88;;;23.24;35.70
55171;BME280;41060;47.510;8.680;2023-06-04T07:48:57;97049.00;;;23.28;35.56
55171;BME280;41060;47.510;8.680;2023-06-04T07:51:24;97047.16;;;23.35;35.63
55171;BME280;41060;47.510;8.680;2023-06-04T07:53:50;97048.09;;;23.15;35.55
55171;BME280;41060;47.510;8.680;2023-06-04T07:56:17;97040.66;;;23.23;35.72
55171;BME280;41060;47.510;8.680;2023-06-04T07:58:44;96950.97;;;22.74;35.52
55171;BME280;41060;47.510;8.680;2023-06-04T08:01:12;97052.28;;;23.17;35.49
55171;BME280;41060;47.510;8.680;2023-06-04T08:03:40;97047.63;;;22.98;35.98
55171;BME280;41060;47.510;8.680;2023-06-04T08:06:07;97049.88;;;23.01;35.74
55171;BME280;41060;47.510;8.680;2023-06-04T08:08:34;97039.53;;;23.05;35.79
55171;BME280;41060;47.510;8.680;2023-06-04T08:11:00;97049.56;;;23.17;35.73
55171;BME280;41060;47.510;8.680;2023-06-04T08:13:28;97033.44;;;23.44;35.46
55171;BME280;41060;47.510;8.680;2023-06-04T08:15:54;97045.88;;;23.31;35.61
55171;BME280;41060;47.510;8.680;2023-06-04T08:18:24;97036.50;;;23.21;35.63
55171;BME280;41060;47.510;8.680;2023-06-04T08:20:52;97019.66;;;23.12;35.87
55171;BME280;41060;47.510;8.680;2023-06-04T08:23:19;97037.78;;;23.45;35.48
55171;BME280;41060;47.510;8.680;2023-06-04T08:25:45;97029.69;;;23.45;35.17
55171;BME280;41060;47.510;8.680;2023-06-04T08:28:13;97041.16;;;23.60;35.52
55171;BME280;41060;47.510;8.680;2023-06-04T08:30:40;97038.72;;;23.78;35.08
55171;BME280;41060;47.510;8.680;2023-06-04T08:33:10;97041.38;;;23.58;35.36
55171;BME280;41060;47.510;8.680;2023-06-04T08:35:38;97020.13;;;23.42;35.46
55171;BME280;41060;47.510;8.680;2023-06-04T08:38:05;97038.88;;;23.70;35.10
55171;BME280;41060;47.510;8.680;2023-06-04T08:40:32;97036.84;;;23.98;34.52
55171;BME280;41060;47.510;8.680;2023-06-04T08:43:00;97034.56;;;23.95;34.58
55171;BME280;41060;47.510;8.680;2023-06-04T08:45:30;97034.56;;;24.08;34.39
55171;BME280;41060;47.510;8.680;2023-06-04T08:48:02;97038.50;;;23.80;34.59
55171;BME280;41060;47.510;8.680;2023-06-04T08:50:33;97042.00;;;23.73;34.99
55171;BME280;41060;47.510;8.680;2023-06-04T08:53:01;97039.75;;;23.84;34.85
55171;BME280;41060;47.510;8.680;2023-06-04T08:55:29;97046.44;;;23.88;34.68
55171;BME280;41060;47.510;8.680;2023-06-04T08:57:56;97050.16;;;23.80;35.30
55171;BME280;41060;47.510;8.680;2023-06-04T09:00:23;97041.00;;;24.01;34.35
55171;BME280;41060;47.510;8.680;2023-06-04T09:02:50;97040.56;;;24.30;34.27
55171;BME280;41060;47.510;8.680;2023-06-04T09:05:20;97049.53;;;24.17;33.64
55171;BME280;41060;47.510;8.680;2023-06-04T09:07:48;97057.44;;;24.06;34.69
55171;BME280;41060;47.510;8.680;2023-06-04T09:10:22;97056.59;;;24.32;34.14
55171;BME280;41060;47.510;8.680;2023-06-04T09:12:51;97042.66;;;24.41;33.77
55171;BME280;41060;47.510;8.680;2023-06-04T09:15:18;97046.00;;;24.43;33.19
55171;BME280;41060;47.510;8.680;2023-06-04T09:17:45;97051.19;;;24.32;33.36
55171;BME280;41060;47.510;8.680;2023-06-04T09:20:21;97047.03;;;23.96;33.94
55171;BME280;41060;47.510;8.680;2023-06-04T09:22:49;97026.25;;;23.77;33.71
55171;BME280;41060;47.510;8.680;2023-06-04T09:25:21;97048.69;;;23.97;33.98
55171;BME280;41060;47.510;8.680;2023-06-04T09:27:50;97044.28;;;23.63;34.67
55171;BME280;41060;47.510;8.680;2023-06-04T09:30:17;97035.97;;;23.65;34.96
55171;BME280;41060;47.510;8.680;2023-06-04T09:32:44;97037.28;;;23.95;34.59
55171;BME280;41060;47.510;8.680;2023-06-04T09:35:13;97039.75;;;24.16;34.72
55171;BME280;41060;47.510;8.680;2023-06-04T09:37:40;97039.28;;;24.59;33.63
55171;BME280;41060;47.510;8.680;2023-06-04T09:40:08;97001.22;;;24.28;32.40
55171;BME280;41060;47.510;8.680;2023-06-04T09:42:42;97036.38;;;24.61;33.30
55171;BME280;41060;47.510;8.680;2023-06-04T09:45:11;97031.38;;;24.58;32.96
55171;BME280;41060;47.510;8.680;2023-06-04T09:47:42;97025.66;;;24.85;32.97
55171;BME280;41060;47.510;8.680;2023-06-04T09:50:10;97025.06;;;24.83;33.05
55171;BME280;41060;47.510;8.680;2023-06-04T09:52:37;96995.75;;;24.67;33.08
55171;BME280;41060;47.510;8.680;2023-06-04T09:55:15;97020.66;;;24.89;33.39
55171;BME280;41060;47.510;8.680;2023-06-04T09:57:50;97018.47;;;25.17;33.46
55171;BME280;41060;47.510;8.680;2023-06-04T10:00:21;97022.25;;;25.48;32.92
55171;BME280;41060;47.510;8.680;2023-06-04T10:02:48;97022.56;;;25.71;32.62
55171;BME280;41060;47.510;8.680;2023-06-04T10:05:15;97019.38;;;25.74;32.92
55171;BME280;41060;47.510;8.680;2023-06-04T10:07:45;97020.66;;;25.96;32.52
55171;BME280;41060;47.510;8.680;2023-06-04T10:10:15;96998.47;;;25.81;32.55
55171;BME280;41060;47.510;8.680;2023-06-04T10:12:43;97025.34;;;25.51;33.63
55171;BME280;41060;47.510;8.680;2023-06-04T10:15:11;97022.63;;;25.58;33.52
55171;BME280;41060;47.510;8.680;2023-06-04T10:17:39;97017.69;;;25.80;34.26
55171;BME280;41060;47.510;8.680;2023-06-04T10:20:07;97013.16;;;25.98;33.46
55171;BME280;41060;47.510;8.680;2023-06-04T10:22:35;97002.94;;;26.19;33.05
55171;BME280;41060;47.510;8.680;2023-06-04T10:25:01;97007.75;;;26.41;33.80
55171;BME280;41060;47.510;8.680;2023-06-04T10:27:30;97005.50;;;26.57;33.09
55171;BME280;41060;47.510;8.680;2023-06-04T10:29:57;97001.22;;;26.67;32.20
55171;BME280;41060;47.510;8.680;2023-06-04T10:32:26;97004.06;;;26.72;32.90
55171;BME280;41060;47.510;8.680;2023-06-04T10:34:54;96992.63;;;26.89;33.01
55171;BME280;41060;47.510;8.680;2023-06-04T10:37:25;96995.59;;;27.17;32.95
55171;BME280;41060;47.510;8.680;2023-06-04T10:39:55;96997.28;;;27.30;32.12
55171;BME280;41060;47.510;8.680;2023-06-04T10:42:23;96986.59;;;27.35;31.40
55171;BME280;41060;47.510;8.680;2023-06-04T10:44:51;96989.44;;;27.10;31.87
55171;BME280;41060;47.510;8.680;2023-06-04T10:47:19;96983.03;;;27.04;31.96
55171;BME280;41060;47.510;8.680;2023-06-04T10:49:49;96991.63;;;27.31;30.72
55171;BME280;41060;47.510;8.680;2023-06-04T10:52:18;96991.75;;;27.54;30.52
55171;BME280;41060;47.510;8.680;2023-06-04T10:54:48;96980.47;;;27.92;30.73
55171;BME280;41060;47.510;8.680;2023-06-04T10:57:16;96959.94;;;28.08;30.32
55171;BME280;41060;47.510;8.680;2023-06-04T10:59:53;96966.91;;;28.39;30.17
55171;BME280;41060;47.510;8.680;2023-06-04T11:02:23;96977.31;;;28.19;30.04
55171;BME280;41060;47.510;8.680;2023-06-04T11:04:58;96969.00;;;28.49;30.71
55171;BME280;41060;47.510;8.680;2023-06-04T11:07:28;96963.22;;;28.57;29.13
55171;BME280;41060;47.510;8.680;2023-06-04T11:09:55;96970.88;;;28.48;28.71
55171;BME280;41060;47.510;8.680;2023-06-04T11:12:22;96973.03;;;28.46;28.84
55171;BME280;41060;47.510;8.680;2023-06-04T11:14:55;96973.59;;;28.71;29.19
55171;BME280;41060;47.510;8.680;2023-06-04T11:17:22;96978.53;;;28.86;29.09
55171;BME280;41060;47.510;8.680;2023-06-04T11:19:49;96976.50;;;28.93;27.92
55171;BME280;41060;47.510;8.680;2023-06-04T11:22:20;96971.06;;;28.93;28.39
55171;BME280;41060;47.510;8.680;2023-06-04T11:24:48;96978.59;;;28.74;26.82
55171;BME280;41060;47.510;8.680;2023-06-04T11:27:18;96969.50;;;28.57;26.93
55171;BME280;41060;47.510;8.680;2023-06-04T11:29:51;96979.56;;;28.22;28.03
55171;BME280;41060;47.510;8.680;2023-06-04T11:32:22;96972.56;;;28.26;28.33
55171;BME280;41060;47.510;8.680;2023-06-04T11:34:48;96962.47;;;28.50;27.21
55171;BME280;41060;47.510;8.680;2023-06-04T11:37:15;96966.41;;;28.54;26.97
55171;BME280;41060;47.510;8.680;2023-06-04T11:39:42;96963.72;;;28.94;26.25
55171;BME280;41060;47.510;8.680;2023-06-04T11:42:11;96963.66;;;29.17;24.73
55171;BME280;41060;47.510;8.680;2023-06-04T11:44:38;96970.44;;;29.43;25.40
55171;BME280;41060;47.510;8.680;2023-06-04T11:47:11;96968.94;;;29.52;24.20
55171;BME280;41060;47.510;8.680;2023-06-04T11:49:38;96965.44;;;29.40;24.13
55171;BME280;41060;47.510;8.680;2023-06-04T11:52:07;96953.13;;;29.37;23.33
55171;BME280;41060;47.510;8.680;2023-06-04T11:54:34;96958.16;;;29.29;24.35
55171;BME280;41060;47.510;8.680;2023-06-04T11:57:04;96958.28;;;29.22;23.98
55171;BME280;41060;47.510;8.680;2023-06-04T11:59:34;96962.88;;;29.33;23.15
55171;BME280;41060;47.510;8.680;2023-06-04T12:02:02;96955.38;;;29.40;22.44
55171;BME280;41060;47.510;8.680;2023-06-04T12:04:30;96935.81;;;29.43;22.65
55171;BME280;41060;47.510;8.680;2023-06-04T12:06:58;96939.88;;;29.74;22.28
55171;BME280;41060;47.510;8.680;2023-06-04T12:09:27;96929.38;;;29.66;21.84
55171;BME280;41060;47.510;8.680;2023-06-04T12:11:57;96957.97;;;30.14;22.27
55171;BME280;41060;47.510;8.680;2023-06-04T12:14:25;96942.19;;;30.33;22.20
55171;BME280;41060;47.510;8.680;2023-06-04T12:16:58;96940.56;;;30.53;22.17
55171;BME280;41060;47.510;8.680;2023-06-04T12:19:25;96942.03;;;30.61;21.85
55171;BME280;41060;47.510;8.680;2023-06-04T12:21:59;96939.38;;;30.88;21.32
55171;BME280;41060;47.510;8.680;2023-06-04T12:24:28;96942.59;;;30.85;20.88
55171;BME280;41060;47.510;8.680;2023-06-04T12:27:02;96932.66;;;30.57;21.16
55171;BME280;41060;47.510;8.680;2023-06-04T12:29:29;96945.00;;;30.59;20.94
55171;BME280;41060;47.510;8.680;2023-06-04T12:32:03;96950.47;;;30.21;20.54
55171;BME280;41060;47.510;8.680;2023-06-04T12:34:31;96934.16;;;30.09;21.71
55171;BME280;41060;47.510;8.680;2023-06-04T12:36:58;96941.78;;;30.24;21.86
55171;BME280;41060;47.510;8.680;2023-06-04T12:39:25;96939.38;;;30.28;21.31
55171;BME280;41060;47.510;8.680;2023-06-04T12:41:52;96941.59;;;30.31;21.78
55171;BME280;41060;47.510;8.680;2023-06-04T12:44:19;96941.56;;;30.47;21.08
55171;BME280;41060;47.510;8.680;2023-06-04T12:46:46;96948.63;;;30.65;20.91
55171;BME280;41060;47.510;8.680;2023-06-04T12:49:14;96938.91;;;30.96;20.79
55171;BME280;41060;47.510;8.680;2023-06-04T12:51:41;96932.22;;;31.09;20.42
55171;BME280;41060;47.510;8.680;2023-06-04T12:54:08;96934.44;;;31.33;21.52
55171;BME280;41060;47.510;8.680;2023-06-04T12:56:34;96939.31;;;31.31;19.82
55171;BME280;41060;47.510;8.680;2023-06-04T12:59:01;96929.59;;;31.19;18.95
55171;BME280;41060;47.510;8.680;2023-06-04T13:01:28;96922.31;;;31.02;19.02
55171;BME280;41060;47.510;8.680;2023-06-04T13:03:54;96904.41;;;30.90;19.81
55171;BME280;41060;47.510;8.680;2023-06-04T13:06:23;96910.34;;;31.09;19.39